sensor_id;sensor_type;location;lat;lon;timestamp;pressure;altitude;pressure_sealevel;temperature;humidity
21129;BME280;10722;51.910;8.352;2023-07-08T00:00:17;101154.47;;;18.68;81.71
21129;BME280;10722;51.910;8.352;2023-07-08T00:03:03;101143.22;;;18.52;80.65
21129;BME280;10722;51.910;8.352;2023-07-08T00:05:52;101145.28;;;18.15;80.78
21129;BME280;10722;51.910;8.352;2023-07-08T00:08:39;101148.75;;;18.15;81.66
21129;BME280;10722;51.910;8.352;2023-07-08T00:11:25;101143.53;;;18.12;82.72
21129;BME280;10722;51.910;8.352;2023-07-08T00:14:11;101153.13;;;18.17;83.53
21129;BME280;10722;51.910;8.352;2023-07-08T00:16:56;101151.34;;;18.20;83.82
21129;BME280;10722;51.910;8.352;2023-07-08T00:19:42;101147.97;;;18.04;85.50
21129;BME280;10722;51.910;8.352;2023-07-08T00:22:27;101132.91;;;18.34;84.90
21129;BME280;10722;51.910;8.352;2023-07-08T00:25:13;101081.91;;;18.75;79.30
21129;BME280;10722;51.910;8.352;2023-07-08T00:27:58;101069.56;;;18.86;78.06
21129;BME280;10722;51.910;8.352;2023-07-08T00:30:44;101110.41;;;18.11;82.55
21129;BME280;10722;51.910;8.352;2023-07-08T00:33:29;101111.84;;;18.46;82.55
21129;BME280;10722;51.910;8.352;2023-07-08T00:36:15;101102.47;;;18.21;82.36
21129;BME280;10722;51.910;8.352;2023-07-08T00:39:00;101120.06;;;17.99;85.23
21129;BME280;10722;51.910;8.352;2023-07-08T00:41:49;101110.53;;;17.91;84.67
21129;BME280;10722;51.910;8.352;2023-07-08T00:44:35;101123.72;;;17.67;86.86
21129;BME280;10722;51.910;8.352;2023-07-08T00:47:22;101129.13;;;17.32;88.65
21129;BME280;10722;51.910;8.352;2023-07-08T00:50:08;101136.09;;;17.37;89.73
21129;BME280;10722;51.910;8.352;2023-07-08T00:56:19;101141.44;;;16.94;93.71
21129;BME280;10722;51.910;8.352;2023-07-08T00:59:09;101133.63;;;16.85;93.13
21129;BME280;10722;51.910;8.352;2023-07-08T01:01:58;101116.19;;;16.73;91.36
21129;BME280;10722;51.910;8.352;2023-07-08T01:04:52;101120.53;;;16.61;92.26
21129;BME280;10722;51.910;8.352;2023-07-08T01:07:41;101115.31;;;16.82;92.30
21129;BME280;10722;51.910;8.352;2023-07-08T01:10:33;101087.41;;;16.96;88.86
21129;BME280;10722;51.910;8.352;2023-07-08T01:13:21;101071.59;;;17.30;86.23
21129;BME280;10722;51.910;8.352;2023-07-08T01:16:07;101055.78;;;17.53;84.00
21129;BME280;10722;51.910;8.352;2023-07-08T01:18:54;101041.69;;;17.76;82.72
21129;BME280;10722;51.910;8.352;2023-07-08T01:24:42;101079.44;;;17.30;86.84
21129;BME280;10722;51.910;8.352;2023-07-08T01:27:29;101088.28;;;16.98;89.84
21129;BME280;10722;51.910;8.352;2023-07-08T01:30:16;101095.28;;;16.61;91.28
21129;BME280;10722;51.910;8.352;2023-07-08T01:33:05;101104.88;;;16.73;93.19
21129;BME280;10722;51.910;8.352;2023-07-08T01:35:52;101098.75;;;16.66;93.50
21129;BME280;10722;51.910;8.352;2023-07-08T01:38:38;101104.88;;;16.54;94.59
21129;BME280;10722;51.910;8.352;2023-07-08T01:41:24;101104.84;;;16.71;94.94
21129;BME280;10722;51.910;8.352;2023-07-08T01:47:11;101073.41;;;17.19;90.92
21129;BME280;10722;51.910;8.352;2023-07-08T01:49:58;101066.38;;;17.30;90.21
21129;BME280;10722;51.910;8.352;2023-07-08T01:52:43;101026.16;;;17.50;85.39
21129;BME280;10722;51.910;8.352;2023-07-08T01:55:28;100993.75;;;17.72;81.86
21129;BME280;10722;51.910;8.352;2023-07-08T01:58:14;101005.06;;;17.74;83.50
21129;BME280;10722;51.910;8.352;2023-07-08T02:00:59;101020.75;;;17.76;83.86
21129;BME280;10722;51.910;8.352;2023-07-08T02:03:45;101021.63;;;17.81;83.75
21129;BME280;10722;51.910;8.352;2023-07-08T02:06:30;101001.56;;;17.77;82.48
21129;BME280;10722;51.910;8.352;2023-07-08T02:09:15;101003.31;;;17.79;82.46
21129;BME280;10722;51.910;8.352;2023-07-08T02:12:00;100984.13;;;17.77;81.80
21129;BME280;10722;51.910;8.352;2023-07-08T02:14:46;100956.94;;;17.95;78.98
21129;BME280;10722;51.910;8.352;2023-07-08T02:17:31;100946.34;;;18.10;77.69
21129;BME280;10722;51.910;8.352;2023-07-08T02:20:17;100943.00;;;17.95;77.43
21129;BME280;10722;51.910;8.352;2023-07-08T02:23:02;100989.22;;;17.96;79.87
21129;BME280;10722;51.910;8.352;2023-07-08T02:25:51;100995.34;;;17.95;80.79
21129;BME280;10722;51.910;8.352;2023-07-08T02:28:37;100995.31;;;17.96;80.40
21129;BME280;10722;51.910;8.352;2023-07-08T02:31:22;100956.06;;;17.98;78.61
21129;BME280;10722;51.910;8.352;2023-07-08T02:34:08;100977.00;;;17.98;79.39
21129;BME280;10722;51.910;8.352;2023-07-08T02:36:53;100976.09;;;17.99;78.96
21129;BME280;10722;51.910;8.352;2023-07-08T02:39:39;100969.94;;;18.06;78.60
21129;BME280;10722;51.910;8.352;2023-07-08T02:42:24;100942.81;;;18.11;76.45
21129;BME280;10722;51.910;8.352;2023-07-08T02:45:10;100922.56;;;18.30;74.88
21129;BME280;10722;51.910;8.352;2023-07-08T02:47:55;100912.13;;;18.27;73.98
21129;BME280;10722;51.910;8.352;2023-07-08T02:50:41;100910.50;;;18.14;73.63
21129;BME280;10722;51.910;8.352;2023-07-08T02:53:26;100916.56;;;18.18;73.35
21129;BME280;10722;51.910;8.352;2023-07-08T02:56:11;100933.97;;;18.23;74.21
21129;BME280;10722;51.910;8.352;2023-07-08T02:58:56;100904.28;;;18.26;72.74
21129;BME280;10722;51.910;8.352;2023-07-08T03:01:42;100903.41;;;18.25;72.25
21129;BME280;10722;51.910;8.352;2023-07-08T03:04:27;100878.88;;;18.32;71.42
21129;BME280;10722;51.910;8.352;2023-07-08T03:07:13;100891.09;;;18.33;70.88
21129;BME280;10722;51.910;8.352;2023-07-08T03:09:58;100897.19;;;18.34;70.68
21129;BME280;10722;51.910;8.352;2023-07-08T03:12:43;100895.38;;;18.39;70.65
21129;BME280;10722;51.910;8.352;2023-07-08T03:15:28;100898.78;;;18.47;70.00
21129;BME280;10722;51.910;8.352;2023-07-08T03:18:14;100906.63;;;18.49;70.20
21129;BME280;10722;51.910;8.352;2023-07-08T03:20:59;100898.75;;;18.49;69.83
21129;BME280;10722;51.910;8.352;2023-07-08T03:23:45;100895.09;;;18.60;69.24
21129;BME280;10722;51.910;8.352;2023-07-08T03:26:30;100887.25;;;18.62;68.85
21129;BME280;10722;51.910;8.352;2023-07-08T03:29:18;100884.56;;;18.65;68.46
21129;BME280;10722;51.910;8.352;2023-07-08T03:32:04;100893.28;;;18.67;68.41
21129;BME280;10722;51.910;8.352;2023-07-08T03:34:49;100888.22;;;18.52;69.15
21129;BME280;10722;51.910;8.352;2023-07-08T03:37:34;100890.81;;;18.55;68.69
21129;BME280;10722;51.910;8.352;2023-07-08T03:40:20;100889.00;;;18.60;68.51
21129;BME280;10722;51.910;8.352;2023-07-08T03:43:05;100889.72;;;18.76;68.19
21129;BME280;10722;51.910;8.352;2023-07-08T03:45:51;100885.44;;;18.66;68.15
21129;BME280;10722;51.910;8.352;2023-07-08T03:48:36;100890.56;;;18.76;67.82
21129;BME280;10722;51.910;8.352;2023-07-08T03:51:28;100895.81;;;18.76;67.69
21129;BME280;10722;51.910;8.352;2023-07-08T03:54:14;100909.75;;;18.80;68.54
21129;BME280;10722;51.910;8.352;2023-07-08T03:57:00;100908.84;;;18.83;68.53
21129;BME280;10722;51.910;8.352;2023-07-08T03:59:46;100900.06;;;18.85;67.38
21129;BME280;10722;51.910;8.352;2023-07-08T04:02:31;100905.34;;;18.80;67.92
21129;BME280;10722;51.910;8.352;2023-07-08T04:05:21;100903.41;;;18.96;67.74
21129;BME280;10722;51.910;8.352;2023-07-08T04:08:07;100903.31;;;19.02;67.97
21129;BME280;10722;51.910;8.352;2023-07-08T04:10:52;100896.31;;;19.03;67.60
21129;BME280;10722;51.910;8.352;2023-07-08T04:13:37;100896.97;;;19.17;67.08
21129;BME280;10722;51.910;8.352;2023-07-08T04:16:37;100911.16;;;19.04;67.62
21129;BME280;10722;51.910;8.352;2023-07-08T04:19:26;100906.72;;;19.09;67.27
21129;BME280;10722;51.910;8.352;2023-07-08T04:22:11;100916.13;;;19.22;67.51
21129;BME280;10722;51.910;8.352;2023-07-08T04:24:57;100914.31;;;19.27;67.51
21129;BME280;10722;51.910;8.352;2023-07-08T04:27:42;100915.25;;;19.23;67.11
21129;BME280;10722;51.910;8.352;2023-07-08T04:30:28;100920.41;;;19.30;67.40
21129;BME280;10722;51.910;8.352;2023-07-08T04:33:14;100939.63;;;19.29;67.92
21129;BME280;10722;51.910;8.352;2023-07-08T04:35:59;100982.34;;;19.37;71.11
21129;BME280;10722;51.910;8.352;2023-07-08T04:38:45;100994.47;;;19.45;71.76
21129;BME280;10722;51.910;8.352;2023-07-08T04:41:30;101003.03;;;19.60;72.89
21129;BME280;10722;51.910;8.352;2023-07-08T04:44:16;101023.19;;;19.58;73.85
21129;BME280;10722;51.910;8.352;2023-07-08T04:47:01;101005.78;;;19.51;73.20
21129;BME280;10722;51.910;8.352;2023-07-08T04:49:47;100975.09;;;19.56;70.60
21129;BME280;10722;51.910;8.352;2023-07-08T04:52:32;100982.00;;;19.61;71.19
21129;BME280;10722;51.910;8.352;2023-07-08T04:55:18;100933.72;;;19.73;67.82
21129;BME280;10722;51.910;8.352;2023-07-08T04:58:04;100888.03;;;19.83;64.74
21129;BME280;10722;51.910;8.352;2023-07-08T05:00:49;100882.53;;;19.97;64.19
21129;BME280;10722;51.910;8.352;2023-07-08T05:03:35;100868.38;;;20.06;62.79
21129;BME280;10722;51.910;8.352;2023-07-08T05:06:20;100860.06;;;20.27;61.63
21129;BME280;10722;51.910;8.352;2023-07-08T05:09:06;100864.03;;;20.47;61.15
21129;BME280;10722;51.910;8.352;2023-07-08T05:11:51;100858.47;;;20.62;60.33
21129;BME280;10722;51.910;8.352;2023-07-08T05:14:37;100864.31;;;20.75;60.40
21129;BME280;10722;51.910;8.352;2023-07-08T05:17:22;100849.69;;;21.00;59.19
21129;BME280;10722;51.910;8.352;2023-07-08T05:20:11;100841.69;;;21.07;58.74
21129;BME280;10722;51.910;8.352;2023-07-08T05:22:56;100850.91;;;21.23;58.87
21129;BME280;10722;51.910;8.352;2023-07-08T05:25:41;100849.84;;;21.32;58.30
21129;BME280;10722;51.910;8.352;2023-07-08T05:28:27;100831.31;;;21.36;57.85
21129;BME280;10722;51.910;8.352;2023-07-08T05:31:12;100833.00;;;21.40;56.87
21129;BME280;10722;51.910;8.352;2023-07-08T05:33:57;100822.56;;;21.34;56.45
21129;BME280;10722;51.910;8.352;2023-07-08T05:36:43;100836.16;;;21.53;56.65
21129;BME280;10722;51.910;8.352;2023-07-08T05:39:30;100831.72;;;21.55;56.43
21129;BME280;10722;51.910;8.352;2023-07-08T05:42:15;100829.63;;;21.68;56.32
21129;BME280;10722;51.910;8.352;2023-07-08T05:45:00;100832.06;;;21.76;56.00
21129;BME280;10722;51.910;8.352;2023-07-08T05:47:46;100828.22;;;21.87;56.01
21129;BME280;10722;51.910;8.352;2023-07-08T05:50:31;100837.81;;;21.90;55.83
21129;BME280;10722;51.910;8.352;2023-07-08T05:53:18;100857.63;;;22.03;57.14
21129;BME280;10722;51.910;8.352;2023-07-08T05:56:04;100840.59;;;22.16;55.96
21129;BME280;10722;51.910;8.352;2023-07-08T05:58:49;100828.28;;;22.17;55.52
21129;BME280;10722;51.910;8.352;2023-07-08T06:01:35;100831.41;;;22.31;54.86
21129;BME280;10722;51.910;8.352;2023-07-08T06:04:20;100822.06;;;22.49;55.09
21129;BME280;10722;51.910;8.352;2023-07-08T06:07:05;100832.16;;;22.65;54.59
21129;BME280;10722;51.910;8.352;2023-07-08T06:09:51;100845.38;;;22.63;55.19
21129;BME280;10722;51.910;8.352;2023-07-08T06:12:36;100820.75;;;22.64;54.66
21129;BME280;10722;51.910;8.352;2023-07-08T06:15:21;100836.50;;;22.66;55.42
21129;BME280;10722;51.910;8.352;2023-07-08T06:18:07;100854.97;;;22.95;55.72
21129;BME280;10722;51.910;8.352;2023-07-08T06:20:53;100828.19;;;23.08;54.33
21129;BME280;10722;51.910;8.352;2023-07-08T06:23:39;100830.94;;;23.04;54.49
21129;BME280;10722;51.910;8.352;2023-07-08T06:26:24;100852.69;;;23.11;55.48
21129;BME280;10722;51.910;8.352;2023-07-08T06:29:09;100859.28;;;22.98;56.17
21129;BME280;10722;51.910;8.352;2023-07-08T06:31:55;100853.50;;;23.13;55.79
21129;BME280;10722;51.910;8.352;2023-07-08T06:34:40;100859.81;;;23.09;56.23
21129;BME280;10722;51.910;8.352;2023-07-08T06:37:26;100855.94;;;23.19;55.86
21129;BME280;10722;51.910;8.352;2023-07-08T06:40:11;100818.41;;;23.38;53.51
21129;BME280;10722;51.910;8.352;2023-07-08T06:42:57;100843.19;;;23.59;54.42
21129;BME280;10722;51.910;8.352;2023-07-08T06:45:43;100826.97;;;23.71;53.98
21129;BME280;10722;51.910;8.352;2023-07-08T06:48:28;100839.13;;;23.75;54.45
21129;BME280;10722;51.910;8.352;2023-07-08T06:51:14;100821.75;;;23.93;53.37
21129;BME280;10722;51.910;8.352;2023-07-08T06:53:58;100816.66;;;24.12;52.50
21129;BME280;10722;51.910;8.352;2023-07-08T06:56:44;100831.06;;;24.27;53.12
21129;BME280;10722;51.910;8.352;2023-07-08T06:59:29;100818.31;;;24.38;52.21
21129;BME280;10722;51.910;8.352;2023-07-08T07:02:15;100797.50;;;24.52;51.42
21129;BME280;10722;51.910;8.352;2023-07-08T07:05:01;100807.97;;;24.77;51.40
21129;BME280;10722;51.910;8.352;2023-07-08T07:07:46;100799.88;;;24.82;51.24
21129;BME280;10722;51.910;8.352;2023-07-08T07:10:32;100808.78;;;25.01;51.28
21129;BME280;10722;51.910;8.352;2023-07-08T07:13:20;100821.09;;;25.24;51.82
21129;BME280;10722;51.910;8.352;2023-07-08T07:16:06;100816.06;;;25.39;51.28
21129;BME280;10722;51.910;8.352;2023-07-08T07:18:51;100815.59;;;25.49;51.29
21129;BME280;10722;51.910;8.352;2023-07-08T07:21:36;100823.16;;;25.59;51.33
21129;BME280;10722;51.910;8.352;2023-07-08T07:24:21;100782.75;;;25.74;49.50
21129;BME280;10722;51.910;8.352;2023-07-08T07:27:08;100771.56;;;25.88;48.29
21129;BME280;10722;51.910;8.352;2023-07-08T07:29:53;100771.94;;;25.99;48.31
21129;BME280;10722;51.910;8.352;2023-07-08T07:32:39;100772.22;;;26.12;48.05
21129;BME280;10722;51.910;8.352;2023-07-08T07:35:24;100773.00;;;26.14;47.86
21129;BME280;10722;51.910;8.352;2023-07-08T07:38:09;100766.22;;;26.27;47.55
21129;BME280;10722;51.910;8.352;2023-07-08T07:40:55;100770.91;;;26.39;48.11
21129;BME280;10722;51.910;8.352;2023-07-08T07:43:40;100772.63;;;26.41;47.67
21129;BME280;10722;51.910;8.352;2023-07-08T07:46:25;100779.75;;;26.59;48.47
21129;BME280;10722;51.910;8.352;2023-07-08T07:49:11;100747.13;;;26.57;46.93
21129;BME280;10722;51.910;8.352;2023-07-08T07:51:56;100780.78;;;26.74;47.56
21129;BME280;10722;51.910;8.352;2023-07-08T07:54:41;100763.41;;;27.03;46.66
21129;BME280;10722;51.910;8.352;2023-07-08T07:57:27;100781.53;;;26.95;47.68
21129;BME280;10722;51.910;8.352;2023-07-08T08:00:13;100763.81;;;26.95;46.57
21129;BME280;10722;51.910;8.352;2023-07-08T08:02:59;100766.84;;;27.05;46.95
21129;BME280;10722;51.910;8.352;2023-07-08T08:05:44;100770.25;;;27.26;46.79
21129;BME280;10722;51.910;8.352;2023-07-08T08:08:29;100756.41;;;27.37;46.21
21129;BME280;10722;51.910;8.352;2023-07-08T08:11:15;100750.53;;;27.47;45.50
21129;BME280;10722;51.910;8.352;2023-07-08T08:14:01;100730.41;;;27.59;44.05
21129;BME280;10722;51.910;8.352;2023-07-08T08:16:46;100754.53;;;27.89;45.22
21129;BME280;10722;51.910;8.352;2023-07-08T08:19:31;100748.78;;;27.97;44.57
21129;BME280;10722;51.910;8.352;2023-07-08T08:22:17;100781.59;;;28.13;46.06
21129;BME280;10722;51.910;8.352;2023-07-08T08:25:02;100775.56;;;27.94;45.99
21129;BME280;10722;51.910;8.352;2023-07-08T08:27:47;100786.31;;;28.08;46.14
21129;BME280;10722;51.910;8.352;2023-07-08T08:30:32;100793.22;;;27.78;46.69
21129;BME280;10722;51.910;8.352;2023-07-08T08:33:19;100798.06;;;28.20;46.31
21129;BME280;10722;51.910;8.352;2023-07-08T08:36:04;100786.06;;;28.29;46.34
21129;BME280;10722;51.910;8.352;2023-07-08T08:38:49;100772.63;;;28.64;44.69
21129;BME280;10722;51.910;8.352;2023-07-08T08:41:38;100763.19;;;28.42;44.44
21129;BME280;10722;51.910;8.352;2023-07-08T08:44:31;100767.69;;;28.72;43.99
21129;BME280;10722;51.910;8.352;2023-07-08T08:50:30;100753.19;;;28.62;43.84
21129;BME280;10722;51.910;8.352;2023-07-08T08:53:17;100755.16;;;28.74;43.47
21129;BME280;10722;51.910;8.352;2023-07-08T08:56:15;100766.44;;;28.47;43.91
21129;BME280;10722;51.910;8.352;2023-07-08T09:01:59;100734.50;;;28.93;42.20
21129;BME280;10722;51.910;8.352;2023-07-08T09:04:45;100727.97;;;28.83;42.64
21129;BME280;10722;51.910;8.352;2023-07-08T09:07:36;100757.38;;;28.66;43.83
21129;BME280;10722;51.910;8.352;2023-07-08T09:10:42;100774.25;;;28.96;44.45
21129;BME280;10722;51.910;8.352;2023-07-08T09:13:33;100746.75;;;28.34;43.44
21129;BME280;10722;51.910;8.352;2023-07-08T09:16:39;100763.22;;;29.18;43.49
21129;BME280;10722;51.910;8.352;2023-07-08T09:19:33;100703.19;;;29.56;40.15
21129;BME280;10722;51.910;8.352;2023-07-08T09:28:13;100737.66;;;30.30;41.37
21129;BME280;10722;51.910;8.352;2023-07-08T09:31:01;100668.09;;;30.19;38.68
21129;BME280;10722;51.910;8.352;2023-07-08T09:33:46;100687.91;;;29.74;39.84
21129;BME280;10722;51.910;8.352;2023-07-08T09:36:32;100689.75;;;30.00;39.81
21129;BME280;10722;51.910;8.352;2023-07-08T09:39:19;100692.28;;;30.30;39.31
21129;BME280;10722;51.910;8.352;2023-07-08T09:42:07;100684.16;;;30.59;38.77
21129;BME280;10722;51.910;8.352;2023-07-08T09:44:59;100690.28;;;30.20;39.51
21129;BME280;10722;51.910;8.352;2023-07-08T09:47:45;100718.28;;;29.85;40.99
21129;BME280;10722;51.910;8.352;2023-07-08T09:50:30;100722.22;;;30.07;40.57
21129;BME280;10722;51.910;8.352;2023-07-08T09:53:16;100703.31;;;30.78;39.38
21129;BME280;10722;51.910;8.352;2023-07-08T09:56:03;100706.00;;;30.78;39.51
21129;BME280;10722;51.910;8.352;2023-07-08T09:58:49;100739.97;;;30.49;41.78
21129;BME280;10722;51.910;8.352;2023-07-08T10:01:35;100681.69;;;30.29;38.63
21129;BME280;10722;51.910;8.352;2023-07-08T10:04:21;100732.63;;;30.53;40.68
21129;BME280;10722;51.910;8.352;2023-07-08T10:07:07;100724.38;;;31.36;39.62
21129;BME280;10722;51.910;8.352;2023-07-08T10:09:54;100724.97;;;31.01;40.09
21129;BME280;10722;51.910;8.352;2023-07-08T10:12:56;100737.31;;;31.29;40.12
21129;BME280;10722;51.910;8.352;2023-07-08T10:15:49;100700.63;;;31.31;38.50
21129;BME280;10722;51.910;8.352;2023-07-08T10:18:37;100729.41;;;31.53;39.41
21129;BME280;10722;51.910;8.352;2023-07-08T10:30:38;100687.69;;;31.12;38.72
21129;BME280;10722;51.910;8.352;2023-07-08T10:34:04;100668.53;;;30.80;37.24
21129;BME280;10722;51.910;8.352;2023-07-08T10:37:22;100690.34;;;30.99;38.24
21129;BME280;10722;51.910;8.352;2023-07-08T10:46:51;100673.78;;;31.33;37.28
21129;BME280;10722;51.910;8.352;2023-07-08T10:59:07;100690.78;;;31.70;37.54
21129;BME280;10722;51.910;8.352;2023-07-08T11:02:08;100691.41;;;31.22;38.38
21129;BME280;10722;51.910;8.352;2023-07-08T11:08:23;100692.63;;;31.57;38.42
21129;BME280;10722;51.910;8.352;2023-07-08T11:11:28;100728.13;;;31.46;40.00
21129;BME280;10722;51.910;8.352;2023-07-08T11:14:25;100729.06;;;31.83;40.03
21129;BME280;10722;51.910;8.352;2023-07-08T11:17:20;100652.03;;;32.36;36.15
21129;BME280;10722;51.910;8.352;2023-07-08T11:20:17;100679.97;;;32.69;36.71
21129;BME280;10722;51.910;8.352;2023-07-08T11:23:11;100658.47;;;32.34;36.56
21129;BME280;10722;51.910;8.352;2023-07-08T11:26:28;100663.31;;;32.88;36.30
21129;BME280;10722;51.910;8.352;2023-07-08T11:29:25;100697.31;;;33.45;37.66
21129;BME280;10722;51.910;8.352;2023-07-08T11:32:15;100687.56;;;32.87;38.13
21129;BME280;10722;51.910;8.352;2023-07-08T11:35:04;100657.81;;;33.59;35.95
21129;BME280;10722;51.910;8.352;2023-07-08T11:37:50;100643.53;;;33.47;35.39
21129;BME280;10722;51.910;8.352;2023-07-08T11:41:12;100625.09;;;32.86;35.28
21129;BME280;10722;51.910;8.352;2023-07-08T11:44:02;100632.19;;;32.63;36.05
21129;BME280;10722;51.910;8.352;2023-07-08T11:46:55;100611.19;;;32.92;34.46
21129;BME280;10722;51.910;8.352;2023-07-08T11:49:41;100627.44;;;32.31;35.56
21129;BME280;10722;51.910;8.352;2023-07-08T11:52:29;100569.81;;;31.66;34.47
21129;BME280;10722;51.910;8.352;2023-07-08T11:55:24;100682.19;;;32.87;38.10
21129;BME280;10722;51.910;8.352;2023-07-08T11:58:21;100615.13;;;33.22;34.49
21129;BME280;10722;51.910;8.352;2023-07-08T12:04:30;100558.56;;;33.36;32.45
21129;BME280;10722;51.910;8.352;2023-07-08T12:07:17;100625.78;;;32.18;35.88
21129;BME280;10722;51.910;8.352;2023-07-08T12:10:11;100566.75;;;32.08;33.64
21129;BME280;10722;51.910;8.352;2023-07-08T12:12:56;100601.28;;;32.59;34.64
21129;BME280;10722;51.910;8.352;2023-07-08T12:15:42;100585.84;;;32.85;34.74
21129;BME280;10722;51.910;8.352;2023-07-08T12:18:32;100606.72;;;33.38;34.23
21129;BME280;10722;51.910;8.352;2023-07-08T12:21:22;100561.19;;;33.81;31.69
21129;BME280;10722;51.910;8.352;2023-07-08T12:24:11;100543.69;;;33.98;31.05
21129;BME280;10722;51.910;8.352;2023-07-08T12:26:57;100557.75;;;33.90;31.77
21129;BME280;10722;51.910;8.352;2023-07-08T12:29:42;100562.19;;;34.01;32.04
21129;BME280;10722;51.910;8.352;2023-07-08T12:32:27;100536.00;;;34.26;30.96
21129;BME280;10722;51.910;8.352;2023-07-08T12:35:27;100555.44;;;34.18;32.12
21129;BME280;10722;51.910;8.352;2023-07-08T12:38:27;100577.66;;;34.83;32.68
21129;BME280;10722;51.910;8.352;2023-07-08T12:41:23;100567.38;;;34.46;32.56
21129;BME280;10722;51.910;8.352;2023-07-08T12:44:21;100537.53;;;34.19;31.34
21129;BME280;10722;51.910;8.352;2023-07-08T12:47:06;100538.69;;;34.26;31.22
21129;BME280;10722;51.910;8.352;2023-07-08T12:49:52;100596.59;;;34.40;34.06
21129;BME280;10722;51.910;8.352;2023-07-08T12:52:39;100515.25;;;34.28;30.88
21129;BME280;10722;51.910;8.352;2023-07-08T12:55:24;100556.13;;;34.31;32.03
21129;BME280;10722;51.910;8.352;2023-07-08T12:58:22;100565.38;;;33.74;33.12
21129;BME280;10722;51.910;8.352;2023-07-08T13:01:08;100522.34;;;33.97;30.89
21129;BME280;10722;51.910;8.352;2023-07-08T13:04:10;100555.53;;;33.96;31.82
21129;BME280;10722;51.910;8.352;2023-07-08T13:06:56;100564.56;;;32.84;33.75
21129;BME280;10722;51.910;8.352;2023-07-08T13:09:45;100558.16;;;32.51;33.65
21129;BME280;10722;51.910;8.352;2023-07-08T13:12:32;100559.22;;;32.02;34.07
21129;BME280;10722;51.910;8.352;2023-07-08T13:15:25;100573.47;;;33.40;32.27
21129;BME280;10722;51.910;8.352;2023-07-08T13:21:18;100530.88;;;33.69;31.00
21129;BME280;10722;51.910;8.352;2023-07-08T13:24:08;100524.50;;;32.24;32.20
21129;BME280;10722;51.910;8.352;2023-07-08T13:26:55;100551.84;;;32.63;32.73
21129;BME280;10722;51.910;8.352;2023-07-08T13:29:41;100596.56;;;32.85;33.93
21129;BME280;10722;51.910;8.352;2023-07-08T13:32:31;100573.22;;;33.55;32.71
21129;BME280;10722;51.910;8.352;2023-07-08T13:35:36;100561.34;;;34.01;31.87
21129;BME280;10722;51.910;8.352;2023-07-08T13:38:23;100554.19;;;33.58;32.53
21129;BME280;10722;51.910;8.352;2023-07-08T13:41:09;100522.75;;;33.37;30.71
21129;BME280;10722;51.910;8.352;2023-07-08T13:43:55;100490.25;;;33.74;29.55
21129;BME280;10722;51.910;8.352;2023-07-08T13:47:00;100477.09;;;33.92;28.83
21129;BME280;10722;51.910;8.352;2023-07-08T13:49:48;100486.22;;;34.01;29.07
21129;BME280;10722;51.910;8.352;2023-07-08T13:52:38;100467.38;;;34.12;28.02
21129;BME280;10722;51.910;8.352;2023-07-08T13:55:27;100464.41;;;33.94;28.47
21129;BME280;10722;51.910;8.352;2023-07-08T13:58:16;100514.31;;;33.97;30.40
21129;BME280;10722;51.910;8.352;2023-07-08T14:01:01;100504.66;;;33.62;30.27
21129;BME280;10722;51.910;8.352;2023-07-08T14:03:47;100523.69;;;33.47;30.97
21129;BME280;10722;51.910;8.352;2023-07-08T14:06:37;100540.69;;;33.37;31.58
21129;BME280;10722;51.910;8.352;2023-07-08T14:09:23;100514.34;;;33.31;30.66
21129;BME280;10722;51.910;8.352;2023-07-08T14:12:09;100574.22;;;33.09;33.36
21129;BME280;10722;51.910;8.352;2023-07-08T14:14:54;100545.41;;;33.33;31.54
21129;BME280;10722;51.910;8.352;2023-07-08T14:17:40;100562.34;;;33.34;31.76
21129;BME280;10722;51.910;8.352;2023-07-08T14:20:25;100547.38;;;32.64;31.78
21129;BME280;10722;51.910;8.352;2023-07-08T14:23:11;100534.38;;;32.00;32.05
21129;BME280;10722;51.910;8.352;2023-07-08T14:25:56;100518.03;;;32.27;31.18
21129;BME280;10722;51.910;8.352;2023-07-08T14:28:41;100566.09;;;32.52;32.58
21129;BME280;10722;51.910;8.352;2023-07-08T14:31:27;100562.19;;;32.56;32.22
21129;BME280;10722;51.910;8.352;2023-07-08T14:34:25;100562.19;;;32.56;32.35
21129;BME280;10722;51.910;8.352;2023-07-08T14:37:13;100573.53;;;32.71;32.34
21129;BME280;10722;51.910;8.352;2023-07-08T14:40:00;100524.94;;;32.53;31.08
21129;BME280;10722;51.910;8.352;2023-07-08T14:42:46;100553.16;;;32.11;32.74
21129;BME280;10722;51.910;8.352;2023-07-08T14:45:50;100551.66;;;31.83;32.79
21129;BME280;10722;51.910;8.352;2023-07-08T14:48:35;100549.38;;;31.89;32.60
21129;BME280;10722;51.910;8.352;2023-07-08T14:51:21;100553.91;;;32.48;31.98
21129;BME280;10722;51.910;8.352;2023-07-08T14:54:06;100560.97;;;32.60;32.15
21129;BME280;10722;51.910;8.352;2023-07-08T14:56:53;100540.28;;;32.63;31.30
21129;BME280;10722;51.910;8.352;2023-07-08T14:59:40;100527.16;;;32.71;30.74
21129;BME280;10722;51.910;8.352;2023-07-08T15:02:26;100541.16;;;32.74;31.75
21129;BME280;10722;51.910;8.352;2023-07-08T15:05:14;100526.16;;;32.83;30.52
21129;BME280;10722;51.910;8.352;2023-07-08T15:07:59;100557.38;;;32.95;31.94
21129;BME280;10722;51.910;8.352;2023-07-08T15:10:49;100531.53;;;32.83;31.14
21129;BME280;10722;51.910;8.352;2023-07-08T15:13:36;100542.88;;;32.75;31.61
21129;BME280;10722;51.910;8.352;2023-07-08T15:16:21;100578.84;;;32.49;33.17
21129;BME280;10722;51.910;8.352;2023-07-08T15:19:10;100564.81;;;32.45;32.77
21129;BME280;10722;51.910;8.352;2023-07-08T15:21:55;100556.03;;;32.43;32.15
21129;BME280;10722;51.910;8.352;2023-07-08T15:24:41;100543.69;;;32.53;31.14
21129;BME280;10722;51.910;8.352;2023-07-08T15:27:26;100589.31;;;32.52;33.94
21129;BME280;10722;51.910;8.352;2023-07-08T15:30:23;100585.25;;;32.11;33.25
21129;BME280;10722;51.910;8.352;2023-07-08T15:33:09;100580.06;;;32.21;32.90